Statewide Weather Sensors

Route Weather Station Name Milepost Date / Time Surface Status Surface Temp Precip Intensity Wind Avg Wind Gust Dir Dewpoint Humidity Air Temp Visibility
I 25 Wyo Hill 3.52 Aug 24, 2019 02:54 am     None None 17 mph 27 mph SE 50.0°F 87% 53.6°F > 1/2 mi
I 25 Whitaker 30.2 Aug 24, 2019 02:55 am Dry 57.9°F None None 18 mph 23 mph S 55.4°F 99% 55.4°F > 1/2 mi
I 25 Bear Creek 46.77 Aug 24, 2019 02:54 am Dry 62.2°F None None 19 mph 24 mph SE 57.2°F 96% 59.0°F > 1/2 mi
I 25 Bordeaux 70.8 Aug 24, 2019 02:54 am Dry 66.0°F None   11 mph 17 mph SW 59.0°F 90% 62.6°F  
I 25 Coleman 98.7 Aug 24, 2019 02:54 am N/A   None   15 mph 21 mph SE 51.8°F 73% 60.8°F  
I 25 Platte/Converse County Line 119.9 Aug 24, 2019 02:54 am Dry 63.5°F None None 10 mph 15 mph E 32.0°F 57% 46.4°F > 1/2 mi
I 25 Deer Creek 164.2 Aug 24, 2019 02:54 am Dry 58.3°F None None 1 mph 2 mph S       > 1/2 mi
I 25 Hat Six 181.67 Aug 24, 2019 02:55 am Dry 58.6°F None None 4 mph 6 mph S 50.0°F 90% 53.6°F > 1/2 mi
I 25 F Street Hill 189.51 Aug 24, 2019 02:54 am Dry 58.8°F None None 9 mph 11 mph NW 50.0°F 90% 51.8°F > 1/2 mi
I 25 Twenty Mile Hill 207.2 Aug 24, 2019 02:54 am N/A   None None 4 mph 5 mph NW 51.8°F 93% 53.6°F > 1/2 mi
I 25 I-25 Divide 267.3 Aug 24, 2019 02:54 am N/A   None None 14 mph 17 mph SW 48.2°F 65% 59.0°F > 1/2 mi
I 80 Evanston POE .06 Aug 24, 2019 02:54 am Dry 50.4°F None   0 mph 6 mph E 32.0°F 65% 42.8°F > 1/2 mi
I 80 Evanston 4.2 Aug 24, 2019 02:54 am Dry 69.1°F None None 0 mph 0 mph N     46.4°F > 1/2 mi
I 80 Bear River Drive 6.94 Aug 24, 2019 02:54 am Dry 50.5°F None   0 mph 3 mph E 32.0°F 69% 42.8°F > 1/2 mi
I 80 Painter 10.16 Aug 24, 2019 02:54 am Dry 55.9°F None   7 mph 9 mph N        
I 80 First Divide 13.86 Aug 24, 2019 02:54 am N/A   None   6 mph 7 mph W 33.8°F 48% 51.8°F  
I 80 US 189 Interchange 17.66 Aug 24, 2019 02:54 am Dry 60.4°F None None 7 mph 9 mph W 33.8°F 55% 50.0°F > 1/2 mi
I 80 Coal Road 20.95 Aug 24, 2019 02:54 am Dry 62.8°F None None 5 mph 7 mph SW 33.8°F 39% 59.0°F > 1/2 mi
I 80 Leroy 23.35 Aug 24, 2019 02:54 am Dry 58.5°F None None 1 mph 2 mph S 33.8°F 59% 48.2°F > 1/2 mi
I 80 French 27.6 Aug 24, 2019 02:54 am Dry 62.1°F None None 4 mph 6 mph SW 35.6°F 44% 57.2°F > 1/2 mi
I 80 Church Butte 52.65 Aug 24, 2019 02:54 am N/A   None None 5 mph 8 mph SW 33.8°F 43% 57.2°F > 1/2 mi
I 80 Peru Hill 82.31 Aug 24, 2019 02:54 am N/A   None   4 mph 5 mph W 26.6°F 34% 53.6°F  
I 80 Green River Tunnel 90.5 Aug 24, 2019 02:54 am Dry 64.9°F None   0 mph 2 mph NW 30.2°F 46% 50.0°F  
I 80 Rock Springs West 97.9 Aug 24, 2019 02:54 am Dry 61.9°F None None 1 mph 2 mph E 26.6°F 37% 51.8°F > 1/2 mi
I 80 Baxter Road 111.5 Aug 24, 2019 02:54 am     None None 0 mph 4 mph   28.4°F 42% 50.0°F > 1/2 mi
I 80 Mile Marker 124.5 124.5 Aug 24, 2019 02:54 am N/A   None None 0 mph 2 mph S 35.6°F 62% 48.2°F > 1/2 mi
I 80 Point of Rocks 129.8 Aug 24, 2019 02:54 am N/A   None None 1 mph 2 mph S 35.6°F 69% 44.6°F > 1/2 mi
I 80 Bitter Creek 141.83 Aug 24, 2019 02:54 am Dry 62.2°F None   7 mph 7 mph SW 35.6°F 50% 53.6°F  
I 80 Tipton 156.72 Aug 24, 2019 02:54 am Dry 59.7°F None None 7 mph 9 mph SW 39.2°F 63% 50.0°F > 1/2 mi
I 80 Continental Divide 184.3 Aug 24, 2019 02:54 am N/A   None   4 mph 5 mph SW 44.6°F 88% 48.2°F  
I 80 Sinclair 221.7 Aug 24, 2019 02:54 am N/A   None None 9 mph 11 mph W 44.6°F 75% 51.8°F > 1/2 mi
I 80 Walcott Junction 234.66 Aug 24, 2019 02:54 am N/A   None None 9 mph 9 mph W 42.8°F 70% 51.8°F > 1/2 mi
I 80 Dana Ridge 244.8 Aug 24, 2019 02:54 am Dry 59.9°F None None 9 mph 10 mph S 37.4°F 60% 51.8°F > 1/2 mi
I 80 Mile Marker 249.1 249.1 Aug 24, 2019 02:54 am Dry 59.4°F None None 15 mph 17 mph W 32.0°F 42% 55.4°F > 1/2 mi
I 80 Halleck Ridge 252.16 Aug 24, 2019 02:54 am N/A   None None 16 mph 21 mph SW 30.2°F   55.4°F > 1/2 mi
I 80 Elk Mountain 256.17 Aug 24, 2019 02:54 am Dry 60.1°F None None 0 mph 0 mph N 32.0°F 42% 55.4°F > 1/2 mi
I 80 County Road 402 262 Aug 24, 2019 02:54 am Dry 62.1°F None None 0 mph 0 mph N 30.2°F 36% 57.2°F > 1/2 mi
I 80 Wagonhound 266.58 Aug 24, 2019 02:54 am Dry 59.5°F None None 5 mph 13 mph SW 33.8°F 46% 53.6°F > 1/2 mi
I 80 Foote Creek 269.5 Aug 24, 2019 02:54 am Dry 60.6°F None None 17 mph 18 mph S 30.2°F 32% 60.8°F > 1/2 mi
I 80 Arlington 271.8 Aug 24, 2019 02:54 am Dry 61.7°F None None 9 mph 11 mph W 5.0°F 12% 57.2°F > 1/2 mi
I 80 Arlington East 273.85 Aug 24, 2019 02:54 am Dry 61.2°F None None 13 mph 16 mph S 26.6°F 29% 59.0°F > 1/2 mi
I 80 Cooper Cove 279.36 Aug 24, 2019 02:54 am N/A   None   11 mph 14 mph SE 33.8°F 38% 59.0°F  
I 80 Strouss Hill 283.75 Aug 24, 2019 02:54 am Dry 59.5°F None None 9 mph 13 mph S 33.8°F 39% 57.2°F > 1/2 mi
I 80 Quealy Dome 289.5 Aug 24, 2019 02:54 am Dry 58.6°F None None 8 mph 9 mph SW 39.2°F 60% 53.6°F > 1/2 mi
I 80 Herrick Lane 297.66 Aug 24, 2019 02:54 am Dry 56.7°F None None 8 mph 11 mph SE 44.6°F   51.8°F > 1/2 mi
I 80 Summit East 325.8 Aug 24, 2019 02:54 am Dry 57.9°F None None 14 mph 18 mph SE 50.0°F 99% 50.0°F > 1/2 mi
I 80 Vedauwoo 329.4 Aug 24, 2019 02:54 am Dry 58.3°F None None 13 mph 17 mph S 48.2°F 92% 50.0°F  
I 80 Lone Tree 333.32 Aug 24, 2019 02:54 am N/A   None None 14 mph 17 mph SE 50.0°F 95% 51.8°F > 1/2 mi
I 80 Buford East 336.1 Aug 24, 2019 02:54 am N/A   None None 10 mph 16 mph S       < 1/4 mi
I 80 Remount Road 340.5 Aug 24, 2019 02:54 am N/A   None None 11 mph 16 mph SE 51.8°F 100% 51.8°F < 1/4 mi
I 80 Otto 347.69 Aug 24, 2019 02:54 am Dry 58.5°F None None 17 mph 23 mph SE 59.0°F   53.6°F > 1/2 mi
I 80 MP 353 353 Aug 24, 2019 02:54 am Dry 63.3°F None None 14 mph 20 mph S       > 1/2 mi
I 80 Cheyenne East 373 Aug 24, 2019 02:54 am Dry 61.0°F None None 12 mph 17 mph SE 51.8°F 91% 53.6°F > 1/2 mi
I 90 Montana State Line .1 Aug 24, 2019 02:54 am Wet 58.5°F None None 9 mph 10 mph NW 51.8°F 96% 53.6°F > 1/2 mi
I 90 Pompey Creek 35.3 Aug 24, 2019 02:54 am N/A   None None 7 mph 9 mph E 37.4°F 84% 42.8°F > 1/2 mi
I 90 Sheridan/Johnson County Line 41.33 Aug 24, 2019 02:54 am Wet 55.4°F None None 3 mph 8 mph NE 33.8°F 71% 44.6°F > 1/2 mi
I 90 Piney Creek Interchange 44.7 Aug 24, 2019 02:54 am Wet 52.2°F None None 4 mph 5 mph W 50.0°F 99% 50.0°F > 1/2 mi
I 90 Kearny Divide 45.33 Aug 24, 2019 02:54 am N/A   None None 2 mph 4 mph S 37.4°F 86% 42.8°F > 1/2 mi
I 90 Indian Creek Road 83.3 Aug 24, 2019 02:54 am Trace Moisture 57.7°F None None 9 mph 11 mph SW 51.8°F 88% 55.4°F > 1/2 mi
I 90 Dead Horse 91.5 Aug 24, 2019 02:54 am Dry 63.3°F None None 6 mph 6 mph SE 53.6°F 88% 57.2°F > 1/2 mi
I 90 Mile Marker 108 108 Aug 24, 2019 02:54 am N/A   None None 9 mph 11 mph SW 51.8°F 89% 55.4°F > 1/2 mi
I 90 Inyan Kara 170.5 Aug 24, 2019 02:54 am Dry 57.6°F None   11 mph 11 mph SE 51.8°F 92% 55.4°F  
I 90 Beulah 205.9 Aug 24, 2019 02:54 am Dry 61.3°F None None 2 mph 4 mph S 53.6°F 94% 55.4°F > 1/2 mi
US 14 Ucross 27.83 Aug 24, 2019 02:54 am Dry 58.1°F None None 6 mph 9 mph N 55.4°F   55.4°F N/A
US 14 Granite Pass 38.95 Aug 24, 2019 02:54 am N/A   None None 6 mph 6 mph E 39.2°F 81% 44.6°F > 1/2 mi
US 16 Big Horn County Line 44.01 Aug 24, 2019 02:54 am N/A   None                
US 191 Farson 40.45 Aug 24, 2019 02:54 am Ice Warning 29.7°F None None 2 mph 4 mph SW 39.2°F 73% 46.4°F > 1/2 mi
US 191 Rim US 191 127 Jul 30, 2019 02:34 pm                      
US 20 Natrona 30 Aug 24, 2019 02:54 am Dry 59.7°F None None 6 mph 9 mph W 48.2°F 91% 51.8°F > 1/2 mi
US 20 Hiland 57.4 Aug 24, 2019 02:54 am Dry 59.5°F None None 4 mph 5 mph SE 48.2°F 95% 50.0°F > 1/2 mi
US 20 Van Tassell 57.85 Aug 24, 2019 02:54 am Dry   None None 4 mph 8 mph N 51.8°F 87% 57.2°F > 1/2 mi
US 26 Wind River Lake 26.05 Aug 24, 2019 02:54 am Dry 45.5°F None None 1 mph 2 mph NE 33.8°F 79% 41.0°F > 1/2 mi
US 287 Pumpkin Vine 420.4 Aug 24, 2019 02:54 am N/A   None None 14 mph 19 mph S 59.0°F   51.8°F > 1/2 mi
US 30 Sage Junction 34 Aug 24, 2019 02:54 am N/A   None   3 mph 4 mph E 32.0°F 60% 44.6°F  
US 30 Nugget Canyon 39.7 Aug 24, 2019 02:54 am N/A   None   1 mph 4 mph NW 28.4°F 59% 42.8°F  
US 85 Gun Barrel 46.8 Aug 24, 2019 02:54 am N/A 59.9°F None None 19 mph 25 mph SE 50.0°F 80% 55.4°F  
WY 120 Meeteetse 61.5 Aug 24, 2019 02:54 am Dry 91.0°F None   8 mph 12 mph S 46.4°F 83% 51.8°F  
WY 210 Wildcat Trail 21.52 Aug 24, 2019 02:54 am Dry 61.3°F None None 14 mph 20 mph SE 55.4°F   53.6°F > 1/2 mi
WY 210 Hynds Lodge Road 24.55 Aug 24, 2019 02:54 am Dry 64.4°F None None 6 mph 17 mph SE       > 1/2 mi
WY 22 Teton Pass 11.2 Aug 24, 2019 02:54 am Dry 54.0°F None None 2 mph 5 mph NE 39.2°F 64% 50.0°F > 1/2 mi
WY 220 Pathfinder Hill 80.1 Aug 23, 2019 05:04 pm                      
WY 230 Skyline 230 113.2 Aug 24, 2019 02:54 am Dry 57.7°F None None 2 mph 9 mph S 24.8°F 30% 55.4°F > 1/2 mi
WY 258 Outer Drive 13.77 Aug 24, 2019 02:54 am Dry 54.3°F None None 0 mph 3 mph E 50.0°F 90% 53.6°F > 1/2 mi
WY 28 New South Pass 41.4 Aug 24, 2019 02:54 am Dry 55.0°F None None 7 mph 7 mph NW 35.6°F 62% 48.2°F > 1/2 mi
WY 28 Red Canyon 59.5 Feb 14, 2019 08:06 am                      
WY 296 Chief Joseph 32.96 Aug 24, 2019 02:54 am N/A   None None 16 mph 22 mph NW        
WY 372 Shute Creek 36 Aug 24, 2019 02:54 am Dry 60.1°F None   6 mph 7 mph W 30.2°F 49% 48.2°F  
WY 387 Pine Tree Junction 131.79 Aug 24, 2019 02:54 am Dry 30.9°F None   3 mph 6 mph S 50.0°F 94% 51.8°F  
WY 487 Shirley Rim 37 Aug 24, 2019 02:55 am Dry 58.1°F None None 3 mph 4 mph W 46.4°F 77% 53.6°F > 1/2 mi
WY 59 Belle Fourche 87 Aug 24, 2019 02:54 am Dry 57.0°F None   8 mph 9 mph S 55.4°F   53.6°F  
WY 789 Beaver Rim 48.1 Aug 24, 2019 02:54 am N/A   None None 5 mph 6 mph SE 46.4°F 91% 48.2°F > 1/2 mi

Contact Us Copyright 2019 Disclaimer Privacy Policy Media